Time;durP1;ratioP1;P1;durP2;ratioP2;P2;SDS_P1;SDS_P2;PMS_P1;PMS_P2;Temp;Humidity;BMP_temperature;BMP_pressure;BME280_temperature;BME280_humidity;BME280_pressure;Samples;Min_cycle;Max_cycle;Signal;HPM_P1;HPM_P2
2023/08/02 00:02:16;;;;;;;9.70;4.63;;;15.90;99.90;;;;;;5082122;28;20069;-78
2023/08/02 00:04:42;;;;;;;12.07;4.80;;;15.80;99.90;;;;;;5079189;28;20032;-79
2023/08/02 00:07:08;;;;;;;11.18;4.65;;;15.80;99.90;;;;;;5073503;28;20148;-79
2023/08/02 00:09:33;;;;;;;10.75;5.13;;;15.90;99.90;;;;;;5066902;28;20043;-79
2023/08/02 00:11:59;;;;;;;10.18;4.70;;;15.80;99.90;;;;;;5064555;28;20040;-79
2023/08/02 00:14:25;;;;;;;11.02;4.60;;;15.90;99.90;;;;;;5075667;28;20135;-79
2023/08/02 00:16:52;;;;;;;6.88;4.03;;;15.90;99.90;;;;;;5062818;28;20146;-79
2023/08/02 00:19:18;;;;;;;11.90;4.80;;;15.80;99.90;;;;;;5071566;28;20044;-79
2023/08/02 00:21:44;;;;;;;10.25;5.10;;;15.80;99.90;;;;;;5078705;28;20372;-79
2023/08/02 00:24:09;;;;;;;9.63;4.70;;;15.90;99.90;;;;;;5072197;28;20390;-79
2023/08/02 00:26:35;;;;;;;7.93;4.63;;;15.90;99.90;;;;;;5071023;28;20059;-80
2023/08/02 00:29:01;;;;;;;10.60;5.20;;;15.80;99.90;;;;;;5069732;28;20032;-77
2023/08/02 00:31:27;;;;;;;14.18;5.32;;;15.90;99.90;;;;;;5072618;28;20071;-81
2023/08/02 00:33:52;;;;;;;8.73;5.20;;;15.90;99.90;;;;;;5070118;28;20040;-79
2023/08/02 00:36:18;;;;;;;9.32;5.35;;;15.90;99.90;;;;;;5074017;28;20040;-79
2023/08/02 00:38:44;;;;;;;9.95;4.93;;;15.80;99.90;;;;;;5082534;28;20042;-79
2023/08/02 00:41:09;;;;;;;9.13;5.55;;;15.80;99.90;;;;;;5073047;28;20033;-79
2023/08/02 00:43:46;;;;;;;9.85;6.55;;;15.80;99.90;;;;;;5076589;28;20036;-80
2023/08/02 00:46:17;;;;;;;14.23;5.55;;;15.90;99.90;;;;;;5071300;28;20105;-79
2023/08/02 00:48:46;;;;;;;13.90;5.53;;;15.80;99.90;;;;;;5069054;28;20036;-79
2023/08/02 00:51:13;;;;;;;10.57;5.88;;;15.80;99.90;;;;;;5067334;28;20044;-79
2023/08/02 00:53:39;;;;;;;15.07;6.43;;;15.90;99.90;;;;;;5065709;28;20408;-80
2023/08/02 00:56:05;;;;;;;10.95;5.78;;;15.80;99.90;;;;;;5063737;28;20048;-79
2023/08/02 00:58:32;;;;;;;13.40;6.22;;;15.90;99.90;;;;;;5072243;28;20127;-80
2023/08/02 01:01:06;;;;;;;12.73;6.13;;;15.80;99.90;;;;;;5070478;28;20044;-80
2023/08/02 01:03:36;;;;;;;12.82;5.35;;;15.90;99.90;;;;;;5070194;28;20115;-81
2023/08/02 01:06:18;;;;;;;10.63;6.13;;;15.80;99.90;;;;;;5073418;28;20051;-79
2023/08/02 01:08:49;;;;;;;10.85;6.05;;;15.80;99.90;;;;;;5069690;28;20049;-80
2023/08/02 01:11:29;;;;;;;15.60;5.88;;;15.90;99.90;;;;;;5060928;28;20497;-79
2023/08/02 01:13:57;;;;;;;11.18;5.93;;;15.70;99.90;;;;;;5071959;28;20037;-80
2023/08/02 01:16:24;;;;;;;13.68;6.15;;;15.80;99.90;;;;;;5070809;28;20464;-80
2023/08/02 01:18:50;;;;;;;14.93;5.97;;;15.80;99.90;;;;;;5073316;28;20060;-80
2023/08/02 01:21:16;;;;;;;12.23;6.20;;;15.80;99.90;;;;;;5072845;28;20050;-80
2023/08/02 01:23:42;;;;;;;14.35;6.70;;;15.80;99.90;;;;;;5070530;28;20044;-80
2023/08/02 01:26:08;;;;;;;10.20;5.70;;;15.90;99.90;;;;;;5070792;28;20051;-79
2023/08/02 01:28:40;;;;;;;14.07;6.38;;;15.80;99.90;;;;;;5072205;28;20119;-79
2023/08/02 01:31:07;;;;;;;20.20;6.63;;;15.80;99.90;;;;;;5077060;28;20037;-79
2023/08/02 01:33:38;;;;;;;12.73;7.00;;;15.80;99.90;;;;;;5072570;28;20507;-79
2023/08/02 01:36:05;;;;;;;11.50;6.63;;;15.80;99.90;;;;;;5076895;28;20032;-79
2023/08/02 01:38:31;;;;;;;15.20;7.32;;;15.70;99.90;;;;;;5073010;28;20058;-80
2023/08/02 01:40:56;;;;;;;12.35;6.75;;;15.80;99.90;;;;;;5074677;28;20044;-80
2023/08/02 01:43:22;;;;;;;18.60;6.35;;;15.80;99.90;;;;;;5069995;28;20487;-80
2023/08/02 01:45:48;;;;;;;12.32;6.28;;;15.80;99.90;;;;;;5074800;28;20072;-80
2023/08/02 01:48:13;;;;;;;15.73;6.60;;;15.80;99.90;;;;;;5074004;28;20562;-81
2023/08/02 01:50:39;;;;;;;12.77;6.53;;;15.70;99.90;;;;;;5074843;28;20482;-80
2023/08/02 01:53:04;;;;;;;13.23;7.35;;;15.80;99.90;;;;;;5076661;28;20150;-79
2023/08/02 01:55:30;;;;;;;13.15;7.03;;;15.70;99.90;;;;;;5074372;28;20294;-80
2023/08/02 01:57:56;;;;;;;19.00;7.30;;;15.80;99.90;;;;;;5069206;28;20037;-80
2023/08/02 02:00:21;;;;;;;11.43;7.32;;;15.70;99.90;;;;;;5069754;28;20459;-80
2023/08/02 02:02:47;;;;;;;13.98;7.40;;;15.80;99.90;;;;;;5076578;28;20048;-80
2023/08/02 02:05:13;;;;;;;12.93;6.80;;;15.80;99.90;;;;;;5079900;28;20055;-79
2023/08/02 02:07:38;;;;;;;11.38;7.38;;;15.80;99.90;;;;;;5075218;28;20499;-79
2023/08/02 02:10:04;;;;;;;26.08;7.45;;;15.80;99.90;;;;;;5070239;28;20053;-79
2023/08/02 02:12:30;;;;;;;13.70;6.93;;;15.80;99.90;;;;;;5069377;28;20102;-79
2023/08/02 02:14:55;;;;;;;13.15;7.03;;;15.80;99.90;;;;;;5073322;28;20051;-78
2023/08/02 02:17:22;;;;;;;15.05;7.18;;;15.70;99.90;;;;;;5071162;28;20297;-78
2023/08/02 02:19:47;;;;;;;13.55;7.22;;;15.70;99.90;;;;;;5079473;28;20103;-78
2023/08/02 02:22:13;;;;;;;17.38;7.15;;;15.70;99.90;;;;;;5080564;28;20113;-79
2023/08/02 02:24:38;;;;;;;15.55;6.97;;;15.70;99.90;;;;;;5069317;28;20045;-80
2023/08/02 02:27:05;;;;;;;15.57;7.03;;;15.80;99.90;;;;;;5068887;28;20033;-80
2023/08/02 02:29:30;;;;;;;16.63;6.60;;;15.80;99.90;;;;;;5075978;28;20048;-80
2023/08/02 02:31:56;;;;;;;13.20;6.38;;;15.80;99.90;;;;;;5071908;28;20369;-80
2023/08/02 02:34:21;;;;;;;20.73;6.95;;;15.80;99.90;;;;;;5077294;28;20134;-79
2023/08/02 02:36:47;;;;;;;8.85;6.15;;;15.80;99.90;;;;;;5071616;28;20071;-80
2023/08/02 02:39:13;;;;;;;13.52;5.63;;;15.80;99.90;;;;;;5071526;28;20044;-79
2023/08/02 02:41:39;;;;;;;13.85;6.15;;;15.70;99.90;;;;;;5072838;28;20099;-80
2023/08/02 02:44:04;;;;;;;12.25;6.20;;;15.70;99.90;;;;;;5080618;28;20052;-79
2023/08/02 02:46:30;;;;;;;13.88;6.70;;;15.80;99.90;;;;;;5058714;28;20258;-80
2023/08/02 02:48:56;;;;;;;15.95;6.82;;;15.80;99.90;;;;;;5065990;28;20441;-79
2023/08/02 02:51:21;;;;;;;18.80;6.70;;;15.80;99.90;;;;;;5075014;28;20494;-80
2023/08/02 02:53:47;;;;;;;16.42;6.60;;;15.70;99.90;;;;;;5076279;28;20063;-79
2023/08/02 02:56:13;;;;;;;18.25;6.82;;;15.70;99.90;;;;;;5077164;28;20396;-79
2023/08/02 02:58:38;;;;;;;18.35;7.47;;;15.70;99.90;;;;;;5076842;28;20056;-79
2023/08/02 03:01:04;;;;;;;15.00;6.53;;;15.70;99.90;;;;;;5054529;28;20509;-79
2023/08/02 03:03:29;;;;;;;19.70;6.35;;;15.70;99.90;;;;;;5073839;28;20123;-79
2023/08/02 03:05:55;;;;;;;30.63;7.95;;;15.80;99.90;;;;;;5073447;28;20039;-79
2023/08/02 03:08:21;;;;;;;13.82;6.38;;;15.70;99.90;;;;;;5071726;28;20045;-79
2023/08/02 03:10:47;;;;;;;19.27;6.60;;;15.60;99.90;;;;;;5067664;28;20044;-79
2023/08/02 03:13:12;;;;;;;17.25;6.57;;;15.60;99.90;;;;;;5084097;28;20577;-78
2023/08/02 03:15:38;;;;;;;19.92;6.63;;;15.70;99.90;;;;;;5074675;28;20480;-78
2023/08/02 03:18:03;;;;;;;12.70;6.75;;;15.60;99.90;;;;;;5073983;28;20056;-78
2023/08/02 03:20:29;;;;;;;19.08;6.63;;;15.60;99.90;;;;;;5072067;28;20522;-79
2023/08/02 03:22:55;;;;;;;24.02;7.25;;;15.50;99.90;;;;;;5073102;28;20101;-78
2023/08/02 03:25:20;;;;;;;19.17;7.07;;;15.50;99.90;;;;;;5076807;28;20491;-78
2023/08/02 03:27:46;;;;;;;18.38;6.45;;;15.50;99.90;;;;;;5054680;28;20301;-78
2023/08/02 03:30:12;;;;;;;19.23;6.75;;;15.40;99.90;;;;;;5068333;28;20471;-78
2023/08/02 03:32:37;;;;;;;20.63;6.60;;;15.40;99.90;;;;;;5078340;27;20511;-78
2023/08/02 03:35:03;;;;;;;17.13;6.30;;;15.40;99.90;;;;;;5066372;28;20689;-77
2023/08/02 03:37:29;;;;;;;21.98;6.80;;;15.40;99.90;;;;;;5076495;28;20555;-78
2023/08/02 03:39:55;;;;;;;18.27;6.63;;;15.50;99.90;;;;;;5080370;28;20123;-77
2023/08/02 03:42:23;;;;;;;24.67;6.68;;;15.50;99.90;;;;;;5076860;28;20044;-77
2023/08/02 03:44:49;;;;;;;22.17;7.32;;;15.50;99.90;;;;;;5073240;28;20171;-78
2023/08/02 03:47:15;;;;;;;21.25;7.22;;;15.50;99.90;;;;;;5075290;28;20098;-79
2023/08/02 03:49:40;;;;;;;22.38;7.97;;;15.50;99.90;;;;;;5069585;28;20470;-76
2023/08/02 03:52:06;;;;;;;22.35;7.82;;;15.60;99.90;;;;;;5077962;28;20109;-77
2023/08/02 03:54:32;;;;;;;27.23;8.63;;;15.50;99.90;;;;;;5094047;28;20036;-79
2023/08/02 03:56:58;;;;;;;25.08;8.15;;;15.60;99.90;;;;;;5098656;28;20446;-78
2023/08/02 03:59:24;;;;;;;28.10;9.25;;;15.60;99.90;;;;;;5073216;28;20075;-77
2023/08/02 04:01:50;;;;;;;23.63;9.25;;;15.60;99.90;;;;;;5075564;28;20037;-79
2023/08/02 04:04:15;;;;;;;29.20;9.43;;;15.60;99.90;;;;;;5093477;27;20044;-78
2023/08/02 04:06:41;;;;;;;23.55;8.52;;;15.60;99.90;;;;;;5097346;28;20043;-79
2023/08/02 04:09:07;;;;;;;20.45;7.90;;;15.60;99.90;;;;;;5093478;28;20388;-78
2023/08/02 04:11:32;;;;;;;25.75;9.55;;;15.50;99.90;;;;;;5094698;28;20050;-78
2023/08/02 04:13:58;;;;;;;21.92;8.50;;;15.60;99.90;;;;;;5076644;28;20036;-81
2023/08/02 04:16:24;;;;;;;23.95;9.57;;;15.50;99.90;;;;;;5095324;28;20039;-78
2023/08/02 04:18:49;;;;;;;28.50;8.25;;;15.50;99.90;;;;;;5075069;28;20490;-77
2023/08/02 04:21:21;;;;;;;24.48;8.32;;;15.50;99.90;;;;;;5079920;28;20475;-77
2023/08/02 04:23:49;;;;;;;31.15;8.43;;;15.50;99.90;;;;;;5080997;28;20194;-78
2023/08/02 04:26:15;;;;;;;24.60;8.95;;;15.50;99.90;;;;;;5074503;28;20529;-78
2023/08/02 04:28:40;;;;;;;29.88;8.13;;;15.40;99.90;;;;;;5073457;28;20040;-79
2023/08/02 04:31:06;;;;;;;21.17;8.68;;;15.40;99.90;;;;;;5082986;28;20071;-78
2023/08/02 04:33:32;;;;;;;27.45;8.70;;;15.40;99.90;;;;;;5088011;28;20043;-78
2023/08/02 04:35:59;;;;;;;19.73;8.35;;;15.40;99.90;;;;;;5098368;28;20035;-79
2023/08/02 04:38:25;;;;;;;21.88;7.85;;;15.40;99.90;;;;;;5094354;28;20502;-79
2023/08/02 04:40:51;;;;;;;27.80;8.85;;;15.40;99.90;;;;;;5079962;28;20074;-77
2023/08/02 04:43:16;;;;;;;27.33;9.18;;;15.40;99.90;;;;;;5075690;28;20063;-78
2023/08/02 04:45:42;;;;;;;24.67;8.43;;;15.30;99.90;;;;;;5092663;28;20039;-78
2023/08/02 04:48:08;;;;;;;21.73;7.63;;;15.30;99.90;;;;;;5089795;28;20101;-79
2023/08/02 04:50:34;;;;;;;20.40;9.05;;;15.30;99.90;;;;;;5075325;28;20052;-80
2023/08/02 04:53:00;;;;;;;19.60;8.55;;;15.30;99.90;;;;;;5096042;28;20040;-78
2023/08/02 04:55:26;;;;;;;23.08;8.00;;;15.30;99.90;;;;;;5093898;28;20039;-79
2023/08/02 04:57:51;;;;;;;22.15;9.70;;;15.30;99.90;;;;;;5079532;28;20061;-79
2023/08/02 05:00:17;;;;;;;22.25;8.90;;;15.20;99.90;;;;;;5097578;28;20328;-78
2023/08/02 05:02:45;;;;;;;27.42;9.88;;;15.20;99.90;;;;;;5091186;28;20065;-79
2023/08/02 05:05:10;;;;;;;24.08;8.77;;;15.20;99.90;;;;;;5091330;28;20483;-78
2023/08/02 05:07:37;;;;;;;19.40;9.38;;;15.30;99.90;;;;;;5076647;28;20061;-78
2023/08/02 05:10:04;;;;;;;22.50;9.27;;;15.20;99.90;;;;;;5086530;28;20065;-78
2023/08/02 05:12:34;;;;;;;24.85;8.52;;;15.20;99.90;;;;;;5059285;28;20122;-77
2023/08/02 05:15:00;;;;;;;23.48;9.70;;;15.30;99.90;;;;;;5092154;28;20040;-76
2023/08/02 05:17:29;;;;;;;20.10;9.57;;;15.20;99.90;;;;;;5092395;28;20039;-77
2023/08/02 05:19:55;;;;;;;23.42;9.82;;;15.30;99.90;;;;;;5072935;28;20036;-78
2023/08/02 05:22:20;;;;;;;27.42;9.88;;;15.30;99.90;;;;;;5072998;28;20074;-78
2023/08/02 05:24:46;;;;;;;22.50;9.38;;;15.30;99.90;;;;;;5073745;28;20490;-77
2023/08/02 05:27:11;;;;;;;29.25;11.10;;;15.40;99.90;;;;;;5077183;28;20043;-76
2023/08/02 05:29:37;;;;;;;23.42;9.35;;;15.30;99.90;;;;;;5092512;28;20048;-75
2023/08/02 05:32:03;;;;;;;20.35;8.05;;;15.30;99.90;;;;;;5074945;28;20039;-76
2023/08/02 05:34:29;;;;;;;21.33;8.82;;;15.30;99.90;;;;;;5092619;28;20051;-75
2023/08/02 05:36:54;;;;;;;19.58;9.07;;;15.30;99.90;;;;;;5075630;28;20119;-76
2023/08/02 05:39:20;;;;;;;22.15;9.05;;;15.30;99.90;;;;;;5073539;28;20059;-75
2023/08/02 05:41:46;;;;;;;24.70;9.82;;;15.40;99.90;;;;;;5084483;28;20067;-75
2023/08/02 05:44:11;;;;;;;18.48;9.18;;;15.30;99.90;;;;;;5097535;28;20050;-76
2023/08/02 05:46:37;;;;;;;19.27;8.88;;;15.30;99.90;;;;;;5097644;28;20121;-76
2023/08/02 05:49:02;;;;;;;21.38;8.38;;;15.30;99.90;;;;;;5074071;28;20058;-76
2023/08/02 05:51:28;;;;;;;16.88;9.95;;;15.40;99.90;;;;;;5092073;28;20548;-75
2023/08/02 05:53:54;;;;;;;20.40;9.27;;;15.40;99.90;;;;;;5084986;28;20105;-76
2023/08/02 05:56:19;;;;;;;17.65;8.98;;;15.40;99.90;;;;;;5089863;28;20047;-76
2023/08/02 05:58:45;;;;;;;21.58;9.27;;;15.50;99.90;;;;;;5074351;28;20033;-77
2023/08/02 06:01:11;;;;;;;19.90;9.70;;;15.60;99.90;;;;;;5097091;28;20122;-77
2023/08/02 06:03:36;;;;;;;19.83;8.48;;;15.60;99.90;;;;;;5096490;28;20050;-75
2023/08/02 06:06:02;;;;;;;18.10;9.18;;;15.60;99.90;;;;;;5093629;28;20088;-75
2023/08/02 06:08:28;;;;;;;23.42;8.70;;;15.70;99.90;;;;;;5062109;28;20539;-76
2023/08/02 06:10:54;;;;;;;20.42;8.00;;;15.70;99.90;;;;;;5072564;28;20028;-76
2023/08/02 06:13:20;;;;;;;18.65;8.38;;;15.70;99.90;;;;;;5070847;28;20051;-76
2023/08/02 06:15:45;;;;;;;18.80;9.10;;;15.70;99.90;;;;;;5079918;28;20352;-75
2023/08/02 06:18:11;;;;;;;18.60;8.80;;;15.80;99.90;;;;;;5099754;28;20050;-76
2023/08/02 06:20:36;;;;;;;19.38;8.15;;;15.80;99.90;;;;;;5078666;28;20064;-76
2023/08/02 06:23:02;;;;;;;23.33;8.63;;;15.80;99.90;;;;;;5071716;28;20121;-75
2023/08/02 06:25:28;;;;;;;16.08;8.15;;;15.80;99.90;;;;;;5099443;28;20075;-75
2023/08/02 06:27:53;;;;;;;13.80;8.10;;;15.80;99.90;;;;;;5072666;28;20036;-78
2023/08/02 06:30:19;;;;;;;19.55;7.90;;;15.80;99.90;;;;;;5075807;28;20472;-78
2023/08/02 06:32:45;;;;;;;15.80;7.88;;;15.80;99.90;;;;;;5080172;28;20047;-78
2023/08/02 06:35:11;;;;;;;19.40;8.25;;;15.80;99.90;;;;;;5095291;28;20064;-77
2023/08/02 06:37:36;;;;;;;19.10;8.27;;;15.70;99.90;;;;;;5081250;28;20131;-76
2023/08/02 06:40:02;;;;;;;23.75;8.73;;;15.80;99.90;;;;;;5075238;28;20164;-76
2023/08/02 06:42:28;;;;;;;14.38;7.95;;;15.80;99.90;;;;;;5082900;28;20056;-76
2023/08/02 06:44:54;;;;;;;14.38;7.40;;;15.80;99.90;;;;;;5071451;27;20486;-75
2023/08/02 06:47:20;;;;;;;13.10;7.35;;;15.80;99.90;;;;;;5078017;28;20449;-76
2023/08/02 06:49:45;;;;;;;13.63;7.70;;;15.80;99.90;;;;;;5084567;28;20427;-75
2023/08/02 06:52:11;;;;;;;18.17;7.68;;;15.90;99.90;;;;;;5097420;28;20043;-75
2023/08/02 06:54:37;;;;;;;17.10;7.45;;;15.80;99.90;;;;;;5098188;27;20283;-78
2023/08/02 06:57:03;;;;;;;16.60;7.63;;;15.90;99.90;;;;;;5097605;27;20493;-75
2023/08/02 06:59:28;;;;;;;15.85;6.93;;;15.90;99.90;;;;;;5075584;28;20050;-75
2023/08/02 07:01:54;;;;;;;12.73;6.35;;;16.00;99.90;;;;;;5093124;27;20082;-75
2023/08/02 07:04:20;;;;;;;13.80;6.93;;;15.90;99.90;;;;;;5068150;28;20127;-76
2023/08/02 07:06:45;;;;;;;17.33;7.82;;;16.00;99.90;;;;;;5090269;28;20144;-76
2023/08/02 07:09:11;;;;;;;18.02;7.97;;;16.00;99.90;;;;;;5098799;28;20262;-76
2023/08/02 07:11:37;;;;;;;13.38;6.80;;;16.00;99.90;;;;;;5096071;28;20043;-76
2023/08/02 07:14:02;;;;;;;13.77;6.82;;;16.10;99.90;;;;;;5075425;28;20135;-76
2023/08/02 07:16:28;;;;;;;16.25;6.68;;;16.00;99.90;;;;;;5073493;27;20108;-79
2023/08/02 07:18:54;;;;;;;13.40;6.35;;;16.00;99.90;;;;;;5096152;28;20464;-77
2023/08/02 07:21:20;;;;;;;13.23;6.82;;;15.90;99.90;;;;;;5100005;27;20047;-77
2023/08/02 07:23:45;;;;;;;18.30;7.13;;;15.90;99.90;;;;;;5099250;27;20044;-77
2023/08/02 07:26:11;;;;;;;18.35;7.30;;;15.90;99.90;;;;;;5077649;28;20198;-77
2023/08/02 07:28:37;;;;;;;15.55;7.10;;;15.90;99.90;;;;;;5082300;28;20071;-78
2023/08/02 07:31:12;;;;;;;14.23;7.28;;;15.80;99.90;;;;;;5094503;28;20078;-77
2023/08/02 07:33:38;;;;;;;17.08;7.80;;;15.90;99.90;;;;;;5076145;28;20238;-78
2023/08/02 07:36:04;;;;;;;16.25;6.90;;;15.80;99.90;;;;;;5094749;28;20167;-78
2023/08/02 07:38:30;;;;;;;16.40;8.40;;;15.80;99.90;;;;;;5093522;27;20056;-76
2023/08/02 07:40:56;;;;;;;16.00;6.93;;;15.80;99.90;;;;;;5099169;27;20032;-73
2023/08/02 07:43:22;;;;;;;14.18;7.18;;;15.80;99.90;;;;;;5076319;28;20105;-74
2023/08/02 07:45:47;;;;;;;16.83;7.28;;;15.70;99.90;;;;;;5079071;28;20118;-74
2023/08/02 07:48:14;;;;;;;17.05;7.55;;;15.70;99.90;;;;;;5077728;28;20038;-75
2023/08/02 07:50:39;;;;;;;15.30;7.75;;;15.70;99.90;;;;;;5092407;28;20068;-74
2023/08/02 07:53:06;;;;;;;19.88;8.30;;;15.70;99.90;;;;;;5094727;28;20415;-74
2023/08/02 07:55:32;;;;;;;18.83;8.23;;;15.70;99.90;;;;;;5076738;28;20040;-76
2023/08/02 07:57:57;;;;;;;20.50;8.88;;;15.60;99.90;;;;;;5091951;28;20524;-76
2023/08/02 08:00:25;;;;;;;15.38;7.75;;;15.60;99.90;;;;;;5079412;28;20046;-74
2023/08/02 08:02:50;;;;;;;15.90;7.57;;;15.50;99.90;;;;;;5068742;28;20044;-76
2023/08/02 08:05:16;;;;;;;18.50;7.82;;;15.50;99.90;;;;;;5086199;28;20050;-73
2023/08/02 08:07:42;;;;;;;19.85;7.72;;;15.40;99.90;;;;;;5076179;28;20105;-73
2023/08/02 08:10:09;;;;;;;13.93;7.15;;;15.40;99.90;;;;;;5094441;27;20123;-75
2023/08/02 08:12:37;;;;;;;15.13;6.35;;;15.40;99.90;;;;;;5094475;28;20055;-75
2023/08/02 08:15:03;;;;;;;14.43;6.72;;;15.40;99.90;;;;;;5070035;28;20046;-72
2023/08/02 08:17:29;;;;;;;14.23;6.07;;;15.30;99.90;;;;;;5080330;28;20040;-74
2023/08/02 08:19:54;;;;;;;17.00;7.32;;;15.30;99.90;;;;;;5077904;28;20036;-74
2023/08/02 08:22:22;;;;;;;13.23;6.47;;;15.30;99.90;;;;;;5093824;28;21720;-73
2023/08/02 08:24:48;;;;;;;14.95;6.45;;;15.30;99.90;;;;;;5087108;28;20031;-74
2023/08/02 08:27:14;;;;;;;9.75;5.68;;;15.30;99.90;;;;;;5075792;28;20065;-74
2023/08/02 08:29:39;;;;;;;13.02;6.03;;;15.30;99.90;;;;;;5059932;28;20048;-73
2023/08/02 08:32:05;;;;;;;16.95;6.28;;;15.30;99.90;;;;;;5094215;28;20036;-75
2023/08/02 08:34:31;;;;;;;18.88;6.28;;;15.20;99.90;;;;;;5093248;28;20040;-77
2023/08/02 08:36:57;;;;;;;12.38;6.07;;;15.20;99.90;;;;;;5068257;28;20067;-76
2023/08/02 08:39:22;;;;;;;12.13;6.05;;;15.20;99.90;;;;;;5093301;28;20778;-73
2023/08/02 08:41:48;;;;;;;15.52;6.00;;;15.20;99.90;;;;;;5096013;28;20044;-73
2023/08/02 08:44:14;;;;;;;12.57;5.82;;;15.20;99.90;;;;;;5067236;28;20070;-73
2023/08/02 08:46:41;;;;;;;13.50;6.00;;;15.20;99.90;;;;;;5097231;27;20039;-74
2023/08/02 08:49:07;;;;;;;15.65;6.72;;;15.20;99.90;;;;;;5075360;28;20423;-74
2023/08/02 08:51:34;;;;;;;12.50;6.15;;;15.30;99.90;;;;;;5076499;28;20449;-74
2023/08/02 08:54:16;;;;;;;10.50;6.03;;;15.20;99.90;;;;;;5068418;28;20454;-73
2023/08/02 08:56:41;;;;;;;11.10;5.55;;;15.30;99.90;;;;;;5077610;27;20032;-74
2023/08/02 08:59:08;;;;;;;10.88;5.45;;;15.30;99.90;;;;;;5094949;28;20040;-74
2023/08/02 09:01:36;;;;;;;10.63;5.43;;;15.30;99.90;;;;;;5081366;28;20532;-73
2023/08/02 09:04:03;;;;;;;11.90;5.07;;;15.40;99.90;;;;;;5076825;28;20446;-73
2023/08/02 09:06:29;;;;;;;7.95;4.60;;;15.30;99.90;;;;;;5073865;28;20050;-74
2023/08/02 09:08:55;;;;;;;10.52;5.15;;;15.40;99.90;;;;;;5097248;28;20048;-76
2023/08/02 09:11:20;;;;;;;11.52;5.50;;;15.40;99.90;;;;;;5093488;28;20032;-76
2023/08/02 09:13:46;;;;;;;8.93;5.60;;;15.40;99.90;;;;;;5070670;28;20073;-76
2023/08/02 09:16:16;;;;;;;8.60;5.65;;;15.50;99.90;;;;;;5081474;27;20601;-72
2023/08/02 09:18:46;;;;;;;9.68;6.15;;;15.50;99.90;;;;;;5083183;27;20050;-72
2023/08/02 09:21:15;;;;;;;10.20;6.90;;;15.50;99.90;;;;;;5085321;27;20307;-71
2023/08/02 09:23:48;;;;;;;9.15;6.13;;;15.50;99.90;;;;;;5044377;28;20044;-70
2023/08/02 09:26:14;;;;;;;;;;;15.60;99.90;;;;;;5087145;27;20040;-71
2023/08/02 09:28:40;;;;;;;11.52;7.20;;;15.60;99.90;;;;;;5083473;28;19923;-71
2023/08/02 09:31:17;;;;;;;8.88;7.30;;;15.70;99.90;;;;;;5087404;28;20037;-73
2023/08/02 09:33:53;;;;;;;10.90;7.93;;;15.70;99.90;;;;;;5050910;28;20056;-71
2023/08/02 09:36:23;;;;;;;11.68;7.60;;;15.70;99.90;;;;;;5083091;27;20071;-71
2023/08/02 09:39:18;;;;;;;7.18;6.47;;;15.60;99.90;;;;;;5063103;28;20059;-72
2023/08/02 09:41:44;;;;;;;14.73;8.40;;;15.70;99.90;;;;;;5088404;28;20044;-71
2023/08/02 09:44:22;;;;;;;10.43;7.80;;;15.70;99.90;;;;;;5090735;28;20051;-71
2023/08/02 09:46:47;;;;;;;12.07;7.65;;;15.70;99.90;;;;;;5091212;28;20159;-71
2023/08/02 09:49:18;;;;;;;11.77;7.75;;;15.70;99.90;;;;;;5072002;28;20236;-72
2023/08/02 09:51:44;;;;;;;14.13;8.25;;;15.80;99.90;;;;;;5083670;27;20039;-72
2023/08/02 09:54:12;;;;;;;13.05;8.70;;;15.80;99.90;;;;;;5089600;27;20040;-73
2023/08/02 09:56:40;;;;;;;11.27;8.30;;;15.80;99.90;;;;;;5086381;27;21721;-73
2023/08/02 09:59:06;;;;;;;11.45;9.00;;;15.90;99.90;;;;;;5067378;27;20040;-72
2023/08/02 10:01:33;;;;;;;12.48;8.23;;;15.90;99.90;;;;;;5087418;27;20121;-74
2023/08/02 10:04:03;;;;;;;9.98;7.57;;;15.90;99.90;;;;;;5067496;27;20043;-73
2023/08/02 10:06:43;;;;;;;10.57;8.02;;;16.00;99.90;;;;;;5088367;27;20043;-72
2023/08/02 10:09:13;;;;;;;10.85;7.68;;;16.00;99.90;;;;;;5088358;27;20050;-73
2023/08/02 10:11:47;;;;;;;8.85;7.60;;;16.00;99.90;;;;;;5087211;27;20047;-73
2023/08/02 10:14:13;;;;;;;10.60;7.43;;;16.00;99.90;;;;;;5087284;27;20173;-74
2023/08/02 10:16:40;;;;;;;8.93;7.63;;;16.10;99.90;;;;;;5086883;27;20040;-73
2023/08/02 10:19:07;;;;;;;8.85;7.00;;;16.10;99.90;;;;;;5048164;28;21560;-72
2023/08/02 10:21:35;;;;;;;8.20;6.35;;;16.10;99.90;;;;;;5051764;28;20113;-71
2023/08/02 10:24:01;;;;;;;8.27;5.70;;;16.10;99.90;;;;;;5090203;27;20236;-73
2023/08/02 10:26:31;;;;;;;7.97;5.28;;;16.20;99.90;;;;;;5091425;27;20050;-72
2023/08/02 10:29:00;;;;;;;6.50;5.40;;;16.20;99.90;;;;;;5068686;28;20089;-74
2023/08/02 10:31:26;;;;;;;5.57;4.60;;;16.10;99.90;;;;;;5086194;27;20044;-75
2023/08/02 10:33:52;;;;;;;6.90;5.13;;;16.10;99.90;;;;;;5054676;27;20071;-75
2023/08/02 10:36:18;;;;;;;6.70;4.38;;;16.00;99.90;;;;;;5089515;27;20378;-75
2023/08/02 10:38:43;;;;;;;6.38;4.75;;;16.00;99.90;;;;;;5088662;27;20112;-74
2023/08/02 10:41:17;;;;;;;7.07;5.07;;;16.00;99.90;;;;;;5092410;27;20059;-72
2023/08/02 10:43:52;;;;;;;6.88;4.60;;;16.00;99.90;;;;;;5086120;27;20078;-74
2023/08/02 10:46:22;;;;;;;6.38;4.70;;;16.00;99.90;;;;;;5088448;27;20043;-72
2023/08/02 10:48:48;;;;;;;7.18;4.65;;;16.00;99.90;;;;;;5078127;28;20613;-74
2023/08/02 10:51:34;;;;;;;5.57;3.90;;;16.00;99.90;;;;;;5070699;27;20065;-72
2023/08/02 10:54:12;;;;;;;4.82;3.92;;;16.00;99.90;;;;;;5086177;27;20673;-74
2023/08/02 10:56:57;;;;;;;4.20;3.50;;;16.00;99.90;;;;;;5085957;27;20047;-73
2023/08/02 10:59:22;;;;;;;4.93;4.20;;;16.10;99.90;;;;;;5066210;28;20093;-74
2023/08/02 11:02:00;;;;;;;4.28;3.65;;;16.20;99.90;;;;;;5067285;27;20502;-73
2023/08/02 11:04:27;;;;;;;3.97;2.50;;;16.30;99.90;;;;;;5069631;27;20044;-72
2023/08/02 11:06:53;;;;;;;3.90;2.70;;;16.30;99.90;;;;;;5085996;27;20070;-73
2023/08/02 11:09:30;;;;;;;4.28;3.13;;;16.30;99.90;;;;;;5064854;28;20043;-74
2023/08/02 11:11:55;;;;;;;4.15;2.90;;;16.50;99.90;;;;;;5069601;27;20036;-74
2023/08/02 11:14:28;;;;;;;4.80;2.72;;;16.60;99.90;;;;;;5064654;27;20348;-74
2023/08/02 11:16:53;;;;;;;4.13;3.10;;;16.80;99.90;;;;;;5067706;27;20388;-75
2023/08/02 11:19:21;;;;;;;4.50;2.38;;;17.00;99.90;;;;;;5070137;27;20092;-76
2023/08/02 11:21:55;;;;;;;3.42;2.67;;;17.20;99.90;;;;;;5070814;28;20055;-75
2023/08/02 11:24:21;;;;;;;3.70;2.20;;;17.30;99.90;;;;;;5087493;27;20054;-75
2023/08/02 11:26:54;;;;;;;2.80;2.22;;;17.60;99.90;;;;;;5048735;27;20048;-75
2023/08/02 11:29:20;;;;;;;3.10;1.73;;;17.80;99.90;;;;;;5085814;27;20058;-75
2023/08/02 11:31:47;;;;;;;3.00;1.98;;;17.80;99.90;;;;;;5081331;28;20057;-76
2023/08/02 11:34:18;;;;;;;4.47;2.03;;;17.90;99.90;;;;;;5086774;27;20139;-76
2023/08/02 11:36:48;;;;;;;2.95;2.30;;;17.90;99.90;;;;;;5085661;27;20044;-75
2023/08/02 11:39:18;;;;;;;3.85;2.28;;;17.90;99.90;;;;;;5072771;28;20056;-76
2023/08/02 11:41:44;;;;;;;4.25;2.70;;;18.00;99.90;;;;;;5067599;28;20057;-77
2023/08/02 11:44:18;;;;;;;3.17;2.60;;;18.00;99.90;;;;;;5083941;27;20039;-75
2023/08/02 11:46:51;;;;;;;3.17;2.60;;;18.00;99.90;;;;;;5057914;28;20044;-75
2023/08/02 11:49:17;;;;;;;3.42;2.83;;;17.90;99.90;;;;;;5066590;28;20361;-74
2023/08/02 11:51:43;;;;;;;4.35;2.92;;;18.00;99.90;;;;;;5072293;28;20040;-74
2023/08/02 11:54:09;;;;;;;4.93;3.30;;;18.10;99.90;;;;;;5063110;28;20048;-75
2023/08/02 11:56:35;;;;;;;4.13;3.40;;;18.20;99.90;;;;;;5063644;28;20123;-74
2023/08/02 11:59:01;;;;;;;5.38;4.07;;;18.20;99.90;;;;;;5064990;28;20046;-74
2023/08/02 12:01:27;;;;;;;4.72;4.22;;;18.10;99.90;;;;;;5069623;28;20063;-74
2023/08/02 12:03:57;;;;;;;5.18;3.95;;;18.10;99.90;;;;;;5063072;28;20052;-76
2023/08/02 12:06:23;;;;;;;5.38;4.30;;;18.10;99.90;;;;;;5077301;28;20051;-75
2023/08/02 12:08:57;;;;;;;5.43;4.75;;;18.00;99.90;;;;;;5079485;27;20055;-74
2023/08/02 12:11:26;;;;;;;5.50;4.70;;;18.10;99.90;;;;;;5064888;28;20152;-74
2023/08/02 12:13:52;;;;;;;5.63;5.00;;;18.20;99.90;;;;;;5068310;28;20437;-75
2023/08/02 12:16:18;;;;;;;5.13;4.28;;;18.30;99.90;;;;;;5061769;28;20044;-74
2023/08/02 12:18:51;;;;;;;5.35;4.70;;;18.60;99.90;;;;;;5062615;28;20070;-74
2023/08/02 12:21:18;;;;;;;4.80;4.10;;;18.80;99.90;;;;;;5065681;28;20630;-76
2023/08/02 12:23:44;;;;;;;5.05;4.55;;;19.20;99.90;;;;;;5063684;28;20422;-75
2023/08/02 12:26:09;;;;;;;4.07;3.38;;;19.50;99.90;;;;;;5065414;28;20044;-74
2023/08/02 12:28:45;;;;;;;4.00;3.42;;;19.70;99.90;;;;;;5069517;28;20483;-75
2023/08/02 12:31:12;;;;;;;3.90;3.45;;;19.70;99.90;;;;;;5063615;28;20044;-74
2023/08/02 12:33:37;;;;;;;5.25;2.63;;;19.90;99.90;;;;;;5047019;28;20039;-75
2023/08/02 12:36:04;;;;;;;5.18;2.72;;;20.00;99.90;;;;;;5066679;28;20445;-75
2023/08/02 12:38:30;;;;;;;5.53;2.53;;;20.30;99.90;;;;;;5064129;28;21071;-75
2023/08/02 12:41:00;;;;;;;4.70;2.10;;;20.50;99.90;;;;;;5064399;28;20063;-75